Time;durP1;ratioP1;P1;durP2;ratioP2;P2;SDS_P1;SDS_P2;PMS_P1;PMS_P2;Temp;Humidity;BMP_temperature;BMP_pressure;BME280_temperature;BME280_humidity;BME280_pressure;Samples;Min_cycle;Max_cycle;Signal;HPM_P1;HPM_P2
2022/07/20 12:21:45;;;;;;;13.57;6.30;;;36.90;36.30;;;;;;5214262;27;21035;-75
2022/07/20 12:24:18;;;;;;;19.70;7.00;;;36.20;37.30;;;;;;5185165;28;20641;-73
2022/07/20 12:27:04;;;;;;;10.60;5.60;;;36.20;37.10;;;;;;5184530;28;20058;-72
2022/07/20 12:29:36;;;;;;;8.10;5.95;;;37.30;35.40;;;;;;5177644;28;20053;-71
2022/07/20 12:32:08;;;;;;;8.50;6.10;;;37.90;34.00;;;;;;5180041;28;20713;-71
2022/07/20 12:34:51;;;;;;;;;;;38.60;33.90;;;;;;5175993;28;20408;-72
2022/07/20 12:37:44;;;;;;;11.13;5.55;;;38.90;34.00;;;;;;5183365;28;19921;-72
2022/07/20 12:40:31;;;;;;;9.65;5.63;;;39.40;34.00;;;;;;5180326;28;20049;-72
2022/07/20 12:43:26;;;;;;;12.10;6.22;;;39.80;33.90;;;;;;5190496;28;20492;-71
2022/07/20 12:46:08;;;;;;;11.68;5.55;;;39.80;31.30;;;;;;5179640;28;20516;-72
2022/07/20 12:48:44;;;;;;;13.88;5.97;;;40.00;32.10;;;;;;5181899;28;20057;-71
2022/07/20 12:51:18;;;;;;;8.63;5.22;;;40.30;31.40;;;;;;5174051;28;20059;-71
2022/07/20 12:53:51;;;;;;;10.80;5.60;;;40.40;32.40;;;;;;5180632;28;20042;-72
2022/07/20 12:56:23;;;;;;;8.88;5.22;;;40.60;31.00;;;;;;5178504;28;20052;-71
2022/07/20 12:58:55;;;;;;;8.38;5.43;;;40.70;32.70;;;;;;5178022;28;20572;-72
2022/07/20 13:01:33;;;;;;;6.30;5.05;;;40.90;31.90;;;;;;5169337;28;20560;-72
2022/07/20 13:04:06;;;;;;;7.18;4.68;;;41.00;30.20;;;;;;5173459;28;20617;-72
2022/07/20 13:06:39;;;;;;;8.77;5.03;;;40.50;30.00;;;;;;5168813;28;20489;-72
2022/07/20 13:09:12;;;;;;;10.27;5.18;;;40.30;31.00;;;;;;5166506;28;20053;-71
2022/07/20 13:11:46;;;;;;;7.03;4.57;;;40.70;30.30;;;;;;5169143;28;20077;-72
2022/07/20 13:14:24;;;;;;;9.35;4.75;;;40.90;30.50;;;;;;5168736;28;20064;-71
2022/07/20 13:16:56;;;;;;;6.78;4.78;;;41.00;30.30;;;;;;5173993;28;20045;-70
2022/07/20 13:19:29;;;;;;;7.07;5.20;;;41.20;31.00;;;;;;5193012;28;20054;-69
2022/07/20 13:22:01;;;;;;;7.75;5.05;;;41.20;30.60;;;;;;5187420;28;20049;-70
2022/07/20 13:24:34;;;;;;;11.20;5.30;;;41.50;30.50;;;;;;5169531;28;20048;-70
2022/07/20 13:27:07;;;;;;;7.20;4.93;;;41.60;29.60;;;;;;5165074;28;20050;-71
2022/07/20 13:29:39;;;;;;;8.68;5.05;;;41.60;29.50;;;;;;5174523;28;20045;-71
2022/07/20 13:32:12;;;;;;;7.25;5.32;;;41.50;29.60;;;;;;5163139;28;20057;-71
2022/07/20 13:34:45;;;;;;;8.63;5.60;;;41.60;29.70;;;;;;5163761;28;20708;-72
2022/07/20 13:37:17;;;;;;;10.75;5.40;;;41.50;29.60;;;;;;5162273;28;20057;-72
2022/07/20 13:39:50;;;;;;;10.27;5.53;;;41.70;30.20;;;;;;5157456;28;20045;-72
2022/07/20 13:42:23;;;;;;;;;;;41.80;30.50;;;;;;5158032;28;20504;-73
2022/07/20 13:44:55;;;;;;;9.10;5.25;;;41.20;30.30;;;;;;5167794;28;19925;-69
2022/07/20 13:47:28;;;;;;;9.43;5.75;;;41.30;30.40;;;;;;5162335;28;20052;-72
2022/07/20 13:50:00;;;;;;;;;;;41.60;30.40;;;;;;5158825;28;20073;-71
2022/07/20 13:52:33;;;;;;;6.10;5.50;;;41.20;29.80;;;;;;5162303;28;20285;-71
2022/07/20 13:55:05;;;;;;;;;;;41.30;30.30;;;;;;5163351;28;20872;-72
2022/07/20 13:57:39;;;;;;;8.10;4.97;;;41.20;29.90;;;;;;5162557;28;19948;-71
2022/07/20 14:00:12;;;;;;;8.40;5.60;;;41.70;30.10;;;;;;5160807;28;20046;-72
2022/07/20 14:02:44;;;;;;;12.25;5.97;;;41.50;29.60;;;;;;5163269;28;20042;-72
2022/07/20 14:05:18;;;;;;;7.43;4.93;;;41.60;30.00;;;;;;5139950;28;20060;-71
2022/07/20 14:07:51;;;;;;;11.15;5.47;;;41.90;30.00;;;;;;5157369;28;20283;-71
2022/07/20 14:10:23;;;;;;;12.13;5.65;;;42.00;29.80;;;;;;5154479;28;20415;-72
2022/07/20 14:12:56;;;;;;;10.77;5.70;;;42.00;30.10;;;;;;5159880;28;20057;-72
2022/07/20 14:15:28;;;;;;;8.07;5.63;;;41.80;29.90;;;;;;5161097;28;20072;-71
2022/07/20 14:18:01;;;;;;;10.15;6.05;;;41.60;30.00;;;;;;5167678;28;20282;-72
2022/07/20 14:20:33;;;;;;;9.40;6.13;;;41.90;29.70;;;;;;5158593;28;20046;-71
2022/07/20 14:23:26;;;;;;;6.53;5.40;;;42.00;29.40;;;;;;5151708;28;21022;-71
2022/07/20 14:25:59;;;;;;;8.98;5.07;;;41.80;29.70;;;;;;5163326;28;20056;-70
2022/07/20 14:28:32;;;;;;;10.02;5.07;;;41.70;29.60;;;;;;5153840;28;20041;-71
2022/07/20 14:31:04;;;;;;;7.53;5.18;;;41.90;29.90;;;;;;5163250;28;20061;-71
2022/07/20 14:33:37;;;;;;;9.52;5.38;;;42.00;29.60;;;;;;5152694;28;20493;-71
2022/07/20 14:36:10;;;;;;;9.10;5.30;;;42.00;29.70;;;;;;5153215;28;20046;-71
2022/07/20 14:38:42;;;;;;;7.90;5.28;;;42.20;29.20;;;;;;5157828;28;20045;-72
2022/07/20 14:41:15;;;;;;;6.55;5.30;;;41.80;28.90;;;;;;5147645;28;20057;-71
2022/07/20 14:43:48;;;;;;;7.85;5.03;;;41.90;28.90;;;;;;5147440;28;20060;-70
2022/07/20 14:46:21;;;;;;;7.32;5.45;;;42.10;28.90;;;;;;5151728;28;20046;-70
2022/07/20 14:48:53;;;;;;;6.85;5.07;;;42.30;29.00;;;;;;5161100;28;21326;-70
2022/07/20 14:51:27;;;;;;;6.18;5.25;;;42.10;28.00;;;;;;5167311;28;20050;-71
2022/07/20 14:53:59;;;;;;;9.57;5.55;;;41.80;28.40;;;;;;5153370;28;20057;-71
2022/07/20 14:56:34;;;;;;;14.05;5.70;;;41.90;28.70;;;;;;5163144;28;20428;-71
2022/07/20 14:59:07;;;;;;;13.30;5.30;;;42.10;28.40;;;;;;5166322;28;20057;-71
2022/07/20 15:01:40;;;;;;;7.47;4.85;;;42.20;28.40;;;;;;5167273;28;20042;-71
2022/07/20 15:04:15;;;;;;;6.13;4.47;;;42.00;28.20;;;;;;5158417;28;20045;-71
2022/07/20 15:06:47;;;;;;;6.18;4.95;;;41.80;28.50;;;;;;5148638;28;20060;-71
2022/07/20 15:09:20;;;;;;;7.95;5.07;;;41.60;28.50;;;;;;5157313;28;20042;-71
2022/07/20 15:11:54;;;;;;;6.93;5.10;;;41.40;28.80;;;;;;5164519;28;20425;-71
2022/07/20 15:14:26;;;;;;;12.40;4.70;;;40.90;28.60;;;;;;5151428;28;20069;-71
2022/07/20 15:16:59;;;;;;;;;;;40.40;28.90;;;;;;5151475;28;20061;-71
2022/07/20 15:19:32;;;;;;;7.55;4.63;;;39.60;28.80;;;;;;5155369;28;19929;-70
2022/07/20 15:22:05;;;;;;;9.05;4.47;;;39.70;29.10;;;;;;5152545;28;20704;-71
2022/07/20 15:24:38;;;;;;;8.98;4.30;;;39.60;28.80;;;;;;5154582;28;20052;-70
2022/07/20 15:27:11;;;;;;;7.03;4.60;;;39.40;28.80;;;;;;5155189;28;20433;-70
2022/07/20 15:29:51;;;;;;;6.13;4.38;;;39.00;29.00;;;;;;5165088;28;20061;-72
2022/07/20 15:32:24;;;;;;;6.20;3.90;;;38.60;29.20;;;;;;5166567;28;20060;-70
2022/07/20 15:34:57;;;;;;;7.50;4.82;;;38.50;29.40;;;;;;5185818;28;20445;-72
2022/07/20 15:37:29;;;;;;;;;;;38.30;29.40;;;;;;5173009;28;20422;-70
2022/07/20 15:40:03;;;;;;;6.10;4.70;;;37.90;29.50;;;;;;5176298;28;19929;-72
2022/07/20 15:42:36;;;;;;;6.88;4.15;;;38.00;29.70;;;;;;5177323;28;20744;-70
2022/07/20 15:45:09;;;;;;;;;;;37.90;29.90;;;;;;5172764;28;20599;-72
2022/07/20 15:47:45;;;;;;;8.32;4.30;;;37.40;29.60;;;;;;5164531;28;19929;-70
2022/07/20 15:50:18;;;;;;;10.75;4.80;;;37.60;30.40;;;;;;5171235;28;20053;-71
2022/07/20 15:52:51;;;;;;;5.28;4.30;;;37.60;30.00;;;;;;5174015;28;20520;-71
2022/07/20 15:55:23;;;;;;;11.13;5.00;;;37.50;30.00;;;;;;5169824;28;20405;-72
2022/07/20 15:57:56;;;;;;;;;;;37.40;29.60;;;;;;5168644;28;20049;-70
2022/07/20 16:00:30;;;;;;;6.15;4.80;;;37.00;29.80;;;;;;5169213;28;19933;-70
2022/07/20 16:03:03;;;;;;;8.88;4.85;;;36.90;30.30;;;;;;5173337;28;20409;-70
2022/07/20 16:05:36;;;;;;;5.68;4.97;;;36.90;30.30;;;;;;5173703;28;20045;-70
2022/07/20 16:08:08;;;;;;;7.35;4.45;;;36.80;30.30;;;;;;5167442;28;20057;-71
2022/07/20 16:10:41;;;;;;;8.52;4.97;;;36.80;30.60;;;;;;5171081;28;20053;-71
2022/07/20 16:13:14;;;;;;;6.70;5.15;;;36.80;30.80;;;;;;5185734;28;20703;-71
2022/07/20 16:15:46;;;;;;;9.60;4.45;;;36.90;31.00;;;;;;5171676;28;20518;-70
2022/07/20 16:18:19;;;;;;;6.75;4.30;;;36.80;30.40;;;;;;5169222;28;20421;-72
2022/07/20 16:20:52;;;;;;;11.95;4.68;;;36.70;31.00;;;;;;5164110;28;20092;-70
2022/07/20 16:23:24;;;;;;;11.77;4.63;;;36.60;31.20;;;;;;5159683;28;20052;-71
2022/07/20 16:25:57;;;;;;;5.15;3.90;;;36.50;31.40;;;;;;5171154;28;26193;-70
2022/07/20 16:28:29;;;;;;;6.32;4.20;;;36.40;31.80;;;;;;5166541;28;20056;-70
2022/07/20 16:31:04;;;;;;;9.07;4.60;;;36.30;31.90;;;;;;5169498;28;20054;-71
2022/07/20 16:33:42;;;;;;;11.77;4.40;;;36.30;30.90;;;;;;5172469;28;20480;-71
2022/07/20 16:36:14;;;;;;;18.02;4.50;;;36.20;31.40;;;;;;5174711;28;20053;-71
2022/07/20 16:38:55;;;;;;;11.05;4.28;;;36.10;32.00;;;;;;5169482;28;20046;-70
2022/07/20 16:41:28;;;;;;;7.55;4.35;;;36.00;32.30;;;;;;5164103;28;20041;-70
2022/07/20 16:44:01;;;;;;;6.05;4.10;;;35.90;32.80;;;;;;5169320;28;20049;-70
2022/07/20 16:46:36;;;;;;;12.98;4.70;;;35.80;32.60;;;;;;5173444;28;20049;-72
2022/07/20 16:49:09;;;;;;;10.63;4.93;;;35.70;32.20;;;;;;5175092;28;20407;-71
2022/07/20 16:51:52;;;;;;;;;;;35.60;32.40;;;;;;5166304;28;20188;-71
2022/07/20 16:54:25;;;;;;;9.80;4.22;;;35.20;33.90;;;;;;5167686;28;19925;-71
2022/07/20 16:56:58;;;;;;;10.07;4.53;;;35.30;33.30;;;;;;5170253;28;20042;-71
2022/07/20 16:59:31;;;;;;;7.13;3.97;;;35.30;33.00;;;;;;5181474;28;20370;-71
2022/07/20 17:02:04;;;;;;;14.68;4.53;;;35.20;34.20;;;;;;5166988;28;20042;-71
2022/07/20 17:04:36;;;;;;;7.28;4.30;;;35.20;35.20;;;;;;5170038;28;20594;-71
2022/07/20 17:07:09;;;;;;;12.65;4.60;;;35.10;35.60;;;;;;5179829;28;20057;-71
2022/07/20 17:09:43;;;;;;;11.90;4.63;;;35.00;36.80;;;;;;5176869;28;20050;-71
2022/07/20 17:12:16;;;;;;;6.40;4.57;;;34.90;37.40;;;;;;5174917;28;20048;-72
2022/07/20 17:14:49;;;;;;;7.75;4.22;;;34.80;36.20;;;;;;5177507;28;20046;-72
2022/07/20 17:17:21;;;;;;;7.40;4.35;;;34.70;36.80;;;;;;5174348;28;20049;-72
2022/07/20 17:19:54;;;;;;;10.35;4.85;;;34.70;38.70;;;;;;5175686;28;20111;-71
2022/07/20 17:22:26;;;;;;;7.50;4.07;;;34.60;40.10;;;;;;5191406;28;20050;-72
2022/07/20 17:24:59;;;;;;;6.93;4.60;;;34.40;40.40;;;;;;5174726;28;20053;-71
2022/07/20 17:27:32;;;;;;;8.20;4.50;;;34.20;39.80;;;;;;5183854;28;20493;-71
2022/07/20 17:30:06;;;;;;;12.05;4.78;;;34.10;41.70;;;;;;5172895;28;20100;-71
2022/07/20 17:32:46;;;;;;;6.30;4.82;;;34.00;39.80;;;;;;5177816;28;20048;-72
2022/07/20 17:35:18;;;;;;;5.82;4.47;;;33.90;42.20;;;;;;5177001;28;20057;-71
2022/07/20 17:37:51;;;;;;;6.22;4.47;;;33.80;41.00;;;;;;5175211;28;20119;-71
2022/07/20 17:40:23;;;;;;;8.93;5.20;;;33.70;41.40;;;;;;5177913;28;20076;-71
2022/07/20 17:42:57;;;;;;;8.05;4.93;;;33.70;41.80;;;;;;5179381;28;20053;-70
2022/07/20 17:45:29;;;;;;;10.27;5.30;;;33.60;42.70;;;;;;5180065;28;20048;-71
2022/07/20 17:48:02;;;;;;;7.65;6.13;;;33.60;42.20;;;;;;5178922;28;20061;-71
2022/07/20 17:50:35;;;;;;;7.63;5.32;;;33.50;41.60;;;;;;5176592;28;20042;-70
2022/07/20 17:53:07;;;;;;;6.82;5.28;;;33.30;42.10;;;;;;5177521;28;20053;-71
2022/07/20 17:55:40;;;;;;;9.82;5.43;;;33.20;42.90;;;;;;5176737;28;20049;-70
2022/07/20 17:58:12;;;;;;;9.23;5.30;;;33.00;43.00;;;;;;5177401;28;20056;-70
2022/07/20 18:00:45;;;;;;;10.15;5.40;;;32.80;43.30;;;;;;5179715;28;20380;-70
2022/07/20 18:03:17;;;;;;;10.60;5.65;;;32.70;43.50;;;;;;5192831;28;20041;-70
2022/07/20 18:06:10;;;;;;;10.93;5.20;;;32.70;43.60;;;;;;5180350;28;20041;-70
2022/07/20 18:08:43;;;;;;;10.73;5.97;;;32.50;43.90;;;;;;5190158;28;20049;-70
2022/07/20 18:11:15;;;;;;;10.18;6.20;;;32.40;44.20;;;;;;5176818;28;20060;-70
2022/07/20 18:13:48;;;;;;;13.02;6.00;;;32.40;43.90;;;;;;5178073;28;20042;-70
2022/07/20 18:16:20;;;;;;;10.43;6.28;;;32.40;44.30;;;;;;5191100;28;20102;-71
2022/07/20 18:18:54;;;;;;;12.95;6.55;;;32.20;45.10;;;;;;5177403;28;20064;-70
2022/07/20 18:21:27;;;;;;;11.45;7.53;;;32.10;45.00;;;;;;5177381;28;20501;-70
2022/07/20 18:24:00;;;;;;;11.57;7.05;;;32.10;43.90;;;;;;5173328;28;20042;-70
2022/07/20 18:26:33;;;;;;;13.70;7.63;;;32.10;44.20;;;;;;5187881;28;20046;-70
2022/07/20 18:29:06;;;;;;;16.25;7.57;;;32.10;44.50;;;;;;5176210;28;20390;-70
2022/07/20 18:31:42;;;;;;;11.50;7.47;;;32.00;45.30;;;;;;5170059;28;20045;-70
2022/07/20 18:34:16;;;;;;;15.43;7.10;;;31.90;46.60;;;;;;5155118;28;20052;-70
2022/07/20 18:36:49;;;;;;;14.23;7.63;;;31.70;46.50;;;;;;5142842;28;20667;-70
2022/07/20 18:39:21;;;;;;;15.23;7.70;;;31.70;46.20;;;;;;5174995;28;20053;-69
2022/07/20 18:41:54;;;;;;;10.65;7.07;;;31.80;46.40;;;;;;5167537;28;20049;-70
2022/07/20 18:44:26;;;;;;;10.75;7.80;;;31.80;47.00;;;;;;5166380;28;20409;-70
2022/07/20 18:46:59;;;;;;;14.80;7.72;;;31.80;47.10;;;;;;5162538;28;20568;-69
2022/07/20 18:49:32;;;;;;;13.48;7.72;;;31.70;47.80;;;;;;5167464;28;20042;-70
2022/07/20 18:52:05;;;;;;;12.30;8.82;;;31.60;47.80;;;;;;5150569;28;20054;-71
2022/07/20 18:54:37;;;;;;;12.40;8.25;;;31.50;48.00;;;;;;5156703;28;20049;-70
2022/07/20 18:57:10;;;;;;;14.15;9.10;;;31.40;48.80;;;;;;5157814;28;20481;-70
2022/07/20 18:59:43;;;;;;;11.25;8.75;;;31.30;49.00;;;;;;5161331;28;20053;-70
2022/07/20 19:02:16;;;;;;;15.30;9.55;;;31.30;49.40;;;;;;5165331;28;20161;-70
2022/07/20 19:04:48;;;;;;;12.63;8.90;;;31.20;49.50;;;;;;5178749;28;20057;-71
2022/07/20 19:07:21;;;;;;;20.13;9.27;;;31.20;50.00;;;;;;5154615;28;20046;-70
2022/07/20 19:09:54;;;;;;;15.73;8.07;;;31.10;50.20;;;;;;5160640;28;20073;-70
2022/07/20 19:12:27;;;;;;;12.48;8.40;;;30.90;51.50;;;;;;5160303;28;20054;-70
2022/07/20 19:15:00;;;;;;;16.00;8.70;;;30.80;51.60;;;;;;5159160;28;20928;-71
2022/07/20 19:17:33;;;;;;;19.77;9.15;;;30.70;51.40;;;;;;5152898;28;20608;-71
2022/07/20 19:20:07;;;;;;;14.23;8.10;;;30.80;51.20;;;;;;5169190;28;20045;-69
2022/07/20 19:22:40;;;;;;;22.90;8.73;;;30.70;52.10;;;;;;5160966;28;20048;-69
2022/07/20 19:25:12;;;;;;;18.92;9.32;;;30.60;52.90;;;;;;5158040;28;20647;-70
2022/07/20 19:27:46;;;;;;;12.07;9.90;;;30.50;52.50;;;;;;5149715;28;20053;-69
2022/07/20 19:30:19;;;;;;;13.55;9.45;;;30.40;52.00;;;;;;5164508;28;20041;-70
2022/07/20 19:32:53;;;;;;;14.43;9.80;;;30.40;52.30;;;;;;5167561;28;20054;-71
2022/07/20 19:35:27;;;;;;;20.52;10.30;;;30.40;52.20;;;;;;5160942;28;20049;-72
2022/07/20 19:38:00;;;;;;;12.45;9.50;;;30.40;51.80;;;;;;5160234;28;20493;-71
2022/07/20 19:40:33;;;;;;;14.90;9.05;;;30.40;52.40;;;;;;5181198;28;20050;-71
2022/07/20 19:43:06;;;;;;;21.50;10.95;;;30.30;52.40;;;;;;5157342;28;20064;-71
2022/07/20 19:45:39;;;;;;;14.50;9.93;;;30.20;53.10;;;;;;5160249;28;20045;-71
2022/07/20 19:48:11;;;;;;;24.90;10.63;;;30.00;53.20;;;;;;5160086;28;20528;-71
2022/07/20 19:50:44;;;;;;;18.48;9.90;;;30.00;53.30;;;;;;5167667;28;20666;-72
2022/07/20 19:53:17;;;;;;;22.58;9.57;;;30.00;53.20;;;;;;5147270;28;20081;-72
2022/07/20 19:55:50;;;;;;;11.30;9.80;;;29.90;53.60;;;;;;5158208;28;20064;-71
2022/07/20 19:58:22;;;;;;;20.33;10.43;;;29.80;53.30;;;;;;5167452;28;20045;-71
2022/07/20 20:00:55;;;;;;;10.75;9.60;;;29.80;53.10;;;;;;5158689;28;20041;-72
2022/07/20 20:03:28;;;;;;;12.50;9.38;;;29.70;53.10;;;;;;5154091;28;20507;-72
2022/07/20 20:06:01;;;;;;;21.23;10.02;;;29.60;53.00;;;;;;5149420;28;20846;-72
2022/07/20 20:08:33;;;;;;;16.48;9.15;;;29.70;53.20;;;;;;5140133;28;20057;-72
2022/07/20 20:11:06;;;;;;;15.97;10.37;;;29.70;53.30;;;;;;5142479;28;20041;-72
2022/07/20 20:13:39;;;;;;;11.57;10.02;;;29.60;53.30;;;;;;5141273;28;20312;-72
2022/07/20 20:16:13;;;;;;;12.57;9.98;;;29.60;53.30;;;;;;5156145;28;20049;-72
2022/07/20 20:18:46;;;;;;;17.35;9.45;;;29.60;53.30;;;;;;5174814;28;20045;-72
2022/07/20 20:21:18;;;;;;;11.68;10.10;;;29.50;53.40;;;;;;5164934;28;20094;-71
2022/07/20 20:23:53;;;;;;;14.85;10.00;;;29.40;53.50;;;;;;5155117;28;20042;-71
2022/07/20 20:26:25;;;;;;;13.05;10.10;;;29.50;54.00;;;;;;5163041;28;20045;-72
2022/07/20 20:28:58;;;;;;;16.53;10.20;;;29.40;53.90;;;;;;5171787;28;20480;-72
2022/07/20 20:31:50;;;;;;;19.35;10.88;;;29.50;54.20;;;;;;5163419;28;20037;-72
2022/07/20 20:34:23;;;;;;;14.37;11.13;;;29.40;54.60;;;;;;4819601;28;10000759;-72
2022/07/20 20:36:55;;;;;;;17.13;10.75;;;29.30;54.60;;;;;;5170584;28;20859;-72
2022/07/20 20:39:28;;;;;;;16.07;11.53;;;29.30;54.90;;;;;;5176746;28;20050;-72
2022/07/20 20:42:01;;;;;;;16.45;11.57;;;29.20;54.90;;;;;;5167518;28;20311;-72
2022/07/20 20:44:33;;;;;;;16.67;11.18;;;29.30;55.10;;;;;;5172167;28;20065;-72
2022/07/20 20:47:10;;;;;;;15.15;11.85;;;29.20;55.20;;;;;;5164476;28;20714;-72
2022/07/20 20:49:43;;;;;;;16.92;13.05;;;29.10;55.50;;;;;;5156349;28;22207;-71
2022/07/20 20:52:15;;;;;;;24.92;13.20;;;29.00;55.70;;;;;;5164631;28;20046;-72
2022/07/20 20:54:48;;;;;;;22.03;13.73;;;29.00;55.80;;;;;;5178354;28;20046;-71
2022/07/20 20:57:20;;;;;;;25.92;15.15;;;28.60;57.00;;;;;;5178371;28;20061;-72
2022/07/20 20:59:53;;;;;;;28.08;15.32;;;28.70;57.20;;;;;;5170806;28;20056;-72
2022/07/20 21:02:25;;;;;;;34.40;17.53;;;28.40;57.80;;;;;;5178057;28;20057;-71
2022/07/20 21:04:58;;;;;;;48.13;18.10;;;28.40;58.10;;;;;;5174455;28;20456;-71
2022/07/20 21:07:31;;;;;;;36.80;17.57;;;28.40;58.30;;;;;;5176795;28;21023;-71
2022/07/20 21:10:07;;;;;;;41.72;17.63;;;27.80;58.40;;;;;;5175195;28;20064;-71
2022/07/20 21:12:40;;;;;;;46.33;17.98;;;28.00;59.30;;;;;;5176032;28;20045;-71
2022/07/20 21:15:13;;;;;;;44.72;17.17;;;;;;;;;;5192494;28;20048;-72
2022/07/20 21:17:45;;;;;;;40.55;17.15;;;27.70;59.50;;;;;;5190631;28;20049;-72
2022/07/20 21:20:18;;;;;;;57.53;17.17;;;;;;;;;;5174654;28;20068;-72
2022/07/20 21:22:51;;;;;;;46.95;17.30;;;;;;;;;;5176087;28;20497;-72
2022/07/20 21:25:24;;;;;;;46.75;16.55;;;;;;;;;;5170097;28;20061;-72
2022/07/20 21:27:59;;;;;;;42.45;16.60;;;27.20;61.10;;;;;;5176484;28;20558;-71
2022/07/20 21:30:31;;;;;;;64.97;15.80;;;27.10;61.00;;;;;;5188619;28;20116;-71
2022/07/20 21:33:04;;;;;;;50.08;14.70;;;;;;;;;;5173503;28;20053;-70
2022/07/20 21:35:37;;;;;;;42.95;14.65;;;;;;;;;;5172485;28;20050;-70
2022/07/20 21:38:10;;;;;;;37.28;14.05;;;26.80;61.50;;;;;;5172536;28;20058;-70
2022/07/20 21:40:43;;;;;;;31.38;10.32;;;;;;;;;;5176822;28;20033;-70
2022/07/20 21:43:17;;;;;;;22.48;8.10;;;;;;;;;;5172786;28;20057;-71
2022/07/20 21:45:50;;;;;;;15.60;6.55;;;;;;;;;;5174781;28;20576;-71
2022/07/20 21:48:23;;;;;;;27.80;6.47;;;;;;;;;;5174271;28;20072;-70
2022/07/20 21:50:56;;;;;;;18.05;6.68;;;;;;;;;;5173271;28;21390;-70
2022/07/20 21:53:28;;;;;;;17.40;6.82;;;26.10;59.30;;;;;;5171697;28;20062;-71
2022/07/20 21:56:01;;;;;;;29.87;7.90;;;26.20;59.40;;;;;;5174381;28;20046;-71
2022/07/20 21:58:34;;;;;;;37.13;8.83;;;26.10;60.10;;;;;;5176757;28;20300;-72
2022/07/20 22:01:06;;;;;;;22.90;8.32;;;26.00;60.60;;;;;;5171569;28;20084;-71
2022/07/20 22:03:39;;;;;;;22.92;8.35;;;26.00;61.00;;;;;;5188316;28;20042;-70
2022/07/20 22:06:11;;;;;;;16.85;6.85;;;26.00;61.40;;;;;;5179420;28;20057;-71
2022/07/20 22:08:44;;;;;;;18.10;7.33;;;25.70;62.20;;;;;;5182068;28;20597;-71
2022/07/20 22:11:17;;;;;;;20.43;7.00;;;25.60;61.70;;;;;;5173389;28;20572;-70
2022/07/20 22:13:50;;;;;;;12.18;6.60;;;25.40;62.20;;;;;;5176811;28;20072;-70
2022/07/20 22:16:22;;;;;;;16.25;6.13;;;25.40;60.90;;;;;;5183090;28;20053;-71
2022/07/20 22:18:56;;;;;;;13.18;5.75;;;;;;;;;;5164890;28;20562;-71
2022/07/20 22:21:29;;;;;;;17.90;5.50;;;;;;;;;;5164491;28;20065;-71
2022/07/20 22:24:02;;;;;;;11.25;3.95;;;;;;;;;;5189694;28;20049;-71
2022/07/20 22:26:39;;;;;;;8.15;3.80;;;25.20;60.00;;;;;;5172785;28;20489;-70
2022/07/20 22:29:11;;;;;;;12.00;3.90;;;25.40;60.20;;;;;;5175925;28;20056;-71
2022/07/20 22:31:44;;;;;;;6.30;3.90;;;25.30;60.70;;;;;;5183248;28;20402;-71
2022/07/20 22:34:16;;;;;;;16.47;4.20;;;25.20;61.00;;;;;;5176212;28;20065;-72
2022/07/20 22:36:49;;;;;;;11.13;3.72;;;25.10;61.20;;;;;;5170776;28;20314;-70
2022/07/20 22:39:22;;;;;;;6.50;3.50;;;25.00;61.70;;;;;;5171094;28;20060;-71
2022/07/20 22:41:54;;;;;;;15.50;4.23;;;24.80;62.30;;;;;;5175031;28;20041;-71
2022/07/20 22:44:27;;;;;;;10.63;3.72;;;24.70;62.50;;;;;;5175345;28;20042;-71
2022/07/20 22:47:00;;;;;;;8.55;4.00;;;24.80;61.90;;;;;;5172875;28;20061;-71
2022/07/20 22:49:33;;;;;;;10.35;4.00;;;;;;;;;;5170786;28;20584;-72
2022/07/20 22:52:07;;;;;;;5.82;3.80;;;;;;;;;;5173026;28;20053;-71
2022/07/20 22:54:40;;;;;;;10.15;4.40;;;;;;;;;;5150645;28;20092;-71
2022/07/20 23:00:09;;;;;;;6.65;4.47;;;;;;;;;;5175647;28;20057;-72
2022/07/20 23:02:42;;;;;;;8.80;4.10;;;;;;;;;;5169621;28;20068;-70
2022/07/20 23:05:16;;;;;;;8.70;4.05;;;;;;;;;;5165711;28;20050;-70
2022/07/20 23:07:56;;;;;;;6.05;4.00;;;;;;;;;;5167703;28;20049;-70
2022/07/20 23:10:29;;;;;;;8.55;3.88;;;;;;;;;;5171322;28;20046;-70
2022/07/20 23:13:02;;;;;;;9.85;3.95;;;;;;;;;;5178431;28;20053;-71
2022/07/20 23:15:35;;;;;;;9.38;4.70;;;;;;;;;;5169773;28;20057;-71
2022/07/20 23:18:08;;;;;;;6.85;4.20;;;;;;;;;;5172315;28;20057;-71
2022/07/20 23:20:41;;;;;;;4.20;3.80;;;;;;;;;;5169686;28;20053;-71
2022/07/20 23:23:13;;;;;;;6.80;4.15;;;;;;;;;;5183400;28;20068;-71
2022/07/20 23:25:46;;;;;;;10.57;4.18;;;;;;;;;;5172479;28;20060;-71
2022/07/20 23:28:19;;;;;;;8.45;3.88;;;;;;;;;;5173668;28;20046;-71
2022/07/20 23:30:54;;;;;;;5.38;4.30;;;;;;;;;;5189208;28;20801;-72
2022/07/20 23:33:28;;;;;;;10.88;4.47;;;;;;;;;;5173209;28;20068;-72
2022/07/20 23:36:01;;;;;;;8.50;4.60;;;;;;;;;;5169490;28;20049;-71
2022/07/20 23:38:34;;;;;;;14.00;4.85;;;;;;;;;;5172147;28;21393;-71
2022/07/20 23:41:07;;;;;;;8.98;5.00;;;;;;;;;;5174612;28;20061;-71
2022/07/20 23:43:39;;;;;;;8.93;4.87;;;;;;;;;;5173084;28;20072;-72
2022/07/20 23:46:13;;;;;;;9.25;5.10;;;;;;;;;;5170164;28;20303;-71
2022/07/20 23:48:46;;;;;;;11.07;5.00;;;;;;;;;;5170813;28;20042;-71
2022/07/20 23:51:19;;;;;;;8.48;5.18;;;;;;;;;;5182346;28;20046;-70
2022/07/20 23:53:52;;;;;;;8.95;5.47;;;;;;;;;;5173332;28;20041;-71
2022/07/20 23:56:24;;;;;;;8.07;5.28;;;;;;;;;;5173262;28;20054;-71
2022/07/20 23:58:58;;;;;;;15.60;5.22;;;;;;;;;;5170875;28;20062;-71
